KCOS

City of Colorado Springs Municipal Airport

Colorado Springs, Colorado, USA
METAR KCOS 211454Z 23015G21KT 10SM FEW140 SCT240 13/M19 A2956 RMK AO2 PK WND 27033/1435 SLP991 T01281189 56019
Observed Flight Rules
Jan-21 @ 14:54 UTC (an hour ago) Visual Flight Rules
Wind Visibility Clouds
230° at 15 knots
 Gusting to 21 knots
10 miles
  • Few at 14,000' AGL
  • Scattered at 24,000' AGL
Temperatures Readings
Current 13°C / 55°F
Dewpoint -19°C / -2°F
Humidity 9%
Altimeter 29.56" Hg
Pressure 999.1 hPa
Elevation 1856
METAR KCOS 211454Z 23015G21KT 10SM FEW140 SCT240 13/M19 A2956 RMK AO2 PK WND 27033/1435 SLP991 T01281189 56019
Observed Flight Rules
Jan-21 @ 14:54 UTC
(an hour ago)
VFR
Wind Visibility
230° at 15 knots
 Gusting to 21 knots
10 miles
Clouds
  • Few at 14,000' AGL
  • Scattered at 24,000' AGL
Temperature Dewpoint
13°C / 55°F -19°C / -2°F
Humidity Altimeter Pressure
9% 29.56" Hg 999.1 hPa